sensor_id;sensor_type;location;lat;lon;timestamp;P1;durP1;ratioP1;P2;durP2;ratioP2
10882;SDS011;5494;51.796;10.952;2022-07-01T00:00:05;15.00;;;13.37;;
10882;SDS011;5494;51.796;10.952;2022-07-01T00:02:38;14.77;;;13.37;;
10882;SDS011;5494;51.796;10.952;2022-07-01T00:05:08;15.50;;;13.20;;
10882;SDS011;5494;51.796;10.952;2022-07-01T00:07:45;15.50;;;13.70;;
10882;SDS011;5494;51.796;10.952;2022-07-01T00:10:15;14.87;;;13.40;;
10882;SDS011;5494;51.796;10.952;2022-07-01T00:12:43;15.50;;;13.87;;
10882;SDS011;5494;51.796;10.952;2022-07-01T00:15:14;14.77;;;13.27;;
10882;SDS011;5494;51.796;10.952;2022-07-01T00:17:43;15.20;;;13.63;;
10882;SDS011;5494;51.796;10.952;2022-07-01T00:20:11;15.40;;;13.73;;
10882;SDS011;5494;51.796;10.952;2022-07-01T00:22:41;15.80;;;14.07;;
10882;SDS011;5494;51.796;10.952;2022-07-01T00:25:09;15.83;;;13.60;;
10882;SDS011;5494;51.796;10.952;2022-07-01T00:27:38;16.43;;;14.00;;
10882;SDS011;5494;51.796;10.952;2022-07-01T00:30:08;16.77;;;14.13;;
10882;SDS011;5494;51.796;10.952;2022-07-01T00:32:39;15.97;;;14.27;;
10882;SDS011;5494;51.796;10.952;2022-07-01T00:35:08;17.30;;;14.43;;
10882;SDS011;5494;51.796;10.952;2022-07-01T00:37:37;15.17;;;13.53;;
10882;SDS011;5494;51.796;10.952;2022-07-01T00:40:07;15.70;;;13.87;;
10882;SDS011;5494;51.796;10.952;2022-07-01T00:42:39;16.50;;;14.67;;
10882;SDS011;5494;51.796;10.952;2022-07-01T00:45:11;16.40;;;14.20;;
10882;SDS011;5494;51.796;10.952;2022-07-01T00:47:43;20.93;;;15.40;;
10882;SDS011;5494;51.796;10.952;2022-07-01T00:50:13;18.00;;;14.17;;
10882;SDS011;5494;51.796;10.952;2022-07-01T00:52:43;18.43;;;14.83;;
10882;SDS011;5494;51.796;10.952;2022-07-01T00:55:13;13.60;;;12.17;;
10882;SDS011;5494;51.796;10.952;2022-07-01T00:57:43;9.33;;;7.63;;
10882;SDS011;5494;51.796;10.952;2022-07-01T01:00:13;8.13;;;6.10;;
10882;SDS011;5494;51.796;10.952;2022-07-01T01:02:48;7.10;;;5.40;;
10882;SDS011;5494;51.796;10.952;2022-07-01T01:05:16;8.37;;;5.90;;
10882;SDS011;5494;51.796;10.952;2022-07-01T01:07:47;7.97;;;6.67;;
10882;SDS011;5494;51.796;10.952;2022-07-01T01:10:16;8.30;;;6.17;;
10882;SDS011;5494;51.796;10.952;2022-07-01T01:12:46;8.90;;;6.80;;
10882;SDS011;5494;51.796;10.952;2022-07-01T01:15:17;10.87;;;6.97;;
10882;SDS011;5494;51.796;10.952;2022-07-01T01:17:48;8.17;;;7.33;;
10882;SDS011;5494;51.796;10.952;2022-07-01T01:20:18;9.97;;;7.20;;
10882;SDS011;5494;51.796;10.952;2022-07-01T01:22:48;10.00;;;8.33;;
10882;SDS011;5494;51.796;10.952;2022-07-01T01:25:17;11.10;;;8.27;;
10882;SDS011;5494;51.796;10.952;2022-07-01T01:27:46;10.17;;;7.23;;
10882;SDS011;5494;51.796;10.952;2022-07-01T01:30:14;14.90;;;9.53;;
10882;SDS011;5494;51.796;10.952;2022-07-01T01:32:43;15.97;;;10.20;;
10882;SDS011;5494;51.796;10.952;2022-07-01T01:35:11;18.20;;;10.47;;
10882;SDS011;5494;51.796;10.952;2022-07-01T01:37:40;13.80;;;9.93;;
10882;SDS011;5494;51.796;10.952;2022-07-01T01:40:11;11.67;;;7.80;;
10882;SDS011;5494;51.796;10.952;2022-07-01T01:42:41;9.00;;;5.20;;
10882;SDS011;5494;51.796;10.952;2022-07-01T01:45:11;7.40;;;5.23;;
10882;SDS011;5494;51.796;10.952;2022-07-01T01:47:40;8.00;;;5.00;;
10882;SDS011;5494;51.796;10.952;2022-07-01T01:50:09;7.00;;;4.70;;
10882;SDS011;5494;51.796;10.952;2022-07-01T01:52:40;7.57;;;4.70;;
10882;SDS011;5494;51.796;10.952;2022-07-01T01:55:10;6.30;;;4.80;;
10882;SDS011;5494;51.796;10.952;2022-07-01T01:57:40;6.27;;;5.00;;
10882;SDS011;5494;51.796;10.952;2022-07-01T02:00:09;6.57;;;5.57;;
10882;SDS011;5494;51.796;10.952;2022-07-01T02:02:39;7.23;;;5.30;;
10882;SDS011;5494;51.796;10.952;2022-07-01T02:05:09;6.60;;;5.60;;
10882;SDS011;5494;51.796;10.952;2022-07-01T02:07:40;9.27;;;7.20;;
10882;SDS011;5494;51.796;10.952;2022-07-01T02:10:09;11.67;;;7.50;;
10882;SDS011;5494;51.796;10.952;2022-07-01T02:12:39;9.90;;;8.47;;
10882;SDS011;5494;51.796;10.952;2022-07-01T02:15:08;8.77;;;7.93;;
10882;SDS011;5494;51.796;10.952;2022-07-01T02:17:37;12.10;;;9.30;;
10882;SDS011;5494;51.796;10.952;2022-07-01T02:20:07;10.53;;;8.97;;
10882;SDS011;5494;51.796;10.952;2022-07-01T02:22:36;12.80;;;8.83;;
10882;SDS011;5494;51.796;10.952;2022-07-01T02:25:05;14.87;;;9.50;;
10882;SDS011;5494;51.796;10.952;2022-07-01T02:27:34;12.90;;;10.30;;
10882;SDS011;5494;51.796;10.952;2022-07-01T02:30:05;13.07;;;10.50;;
10882;SDS011;5494;51.796;10.952;2022-07-01T02:32:35;13.03;;;11.60;;
10882;SDS011;5494;51.796;10.952;2022-07-01T02:35:04;12.70;;;10.73;;
10882;SDS011;5494;51.796;10.952;2022-07-01T02:37:32;14.63;;;13.17;;
10882;SDS011;5494;51.796;10.952;2022-07-01T02:40:01;16.63;;;14.13;;
10882;SDS011;5494;51.796;10.952;2022-07-01T02:42:30;16.50;;;14.80;;
10882;SDS011;5494;51.796;10.952;2022-07-01T02:45:02;19.03;;;15.23;;
10882;SDS011;5494;51.796;10.952;2022-07-01T02:47:33;16.10;;;14.50;;
10882;SDS011;5494;51.796;10.952;2022-07-01T02:50:03;17.07;;;15.37;;
10882;SDS011;5494;51.796;10.952;2022-07-01T02:52:33;17.17;;;15.57;;
10882;SDS011;5494;51.796;10.952;2022-07-01T02:55:03;19.87;;;17.83;;
10882;SDS011;5494;51.796;10.952;2022-07-01T02:57:34;19.40;;;17.40;;
10882;SDS011;5494;51.796;10.952;2022-07-01T03:00:04;21.87;;;18.10;;
10882;SDS011;5494;51.796;10.952;2022-07-01T03:02:37;22.00;;;18.67;;
10882;SDS011;5494;51.796;10.952;2022-07-01T03:05:07;22.63;;;20.27;;
10882;SDS011;5494;51.796;10.952;2022-07-01T03:07:37;24.47;;;21.97;;
10882;SDS011;5494;51.796;10.952;2022-07-01T03:10:07;27.00;;;24.20;;
10882;SDS011;5494;51.796;10.952;2022-07-01T03:12:37;28.13;;;25.23;;
10882;SDS011;5494;51.796;10.952;2022-07-01T03:15:07;29.67;;;24.83;;
10882;SDS011;5494;51.796;10.952;2022-07-01T03:17:40;29.30;;;25.70;;
10882;SDS011;5494;51.796;10.952;2022-07-01T03:20:12;31.60;;;26.17;;
10882;SDS011;5494;51.796;10.952;2022-07-01T03:22:43;31.87;;;26.83;;
10882;SDS011;5494;51.796;10.952;2022-07-01T03:25:14;30.87;;;27.60;;
10882;SDS011;5494;51.796;10.952;2022-07-01T03:27:42;30.90;;;26.73;;
10882;SDS011;5494;51.796;10.952;2022-07-01T03:30:14;29.77;;;26.60;;
10882;SDS011;5494;51.796;10.952;2022-07-01T03:32:46;31.83;;;26.63;;
10882;SDS011;5494;51.796;10.952;2022-07-01T03:35:14;24.57;;;20.60;;
10882;SDS011;5494;51.796;10.952;2022-07-01T03:38:00;20.47;;;18.43;;
10882;SDS011;5494;51.796;10.952;2022-07-01T03:40:29;18.40;;;16.53;;
10882;SDS011;5494;51.796;10.952;2022-07-01T03:42:58;19.37;;;17.27;;
10882;SDS011;5494;51.796;10.952;2022-07-01T03:45:28;17.70;;;15.90;;
10882;SDS011;5494;51.796;10.952;2022-07-01T03:47:58;17.20;;;15.07;;
10882;SDS011;5494;51.796;10.952;2022-07-01T03:50:27;16.67;;;14.97;;
10882;SDS011;5494;51.796;10.952;2022-07-01T03:52:56;17.67;;;15.70;;
10882;SDS011;5494;51.796;10.952;2022-07-01T03:55:39;18.17;;;16.37;;
10882;SDS011;5494;51.796;10.952;2022-07-01T03:58:08;22.87;;;17.90;;
10882;SDS011;5494;51.796;10.952;2022-07-01T04:00:37;18.13;;;16.27;;
10882;SDS011;5494;51.796;10.952;2022-07-01T04:03:08;16.93;;;15.23;;
10882;SDS011;5494;51.796;10.952;2022-07-01T04:05:37;17.50;;;14.20;;
10882;SDS011;5494;51.796;10.952;2022-07-01T04:08:06;16.20;;;14.53;;
10882;SDS011;5494;51.796;10.952;2022-07-01T04:10:38;14.40;;;13.00;;
10882;SDS011;5494;51.796;10.952;2022-07-01T04:13:08;13.73;;;12.43;;
10882;SDS011;5494;51.796;10.952;2022-07-01T04:15:57;12.30;;;11.10;;
10882;SDS011;5494;51.796;10.952;2022-07-01T04:18:29;12.03;;;10.93;;
10882;SDS011;5494;51.796;10.952;2022-07-01T04:20:58;12.57;;;11.37;;
10882;SDS011;5494;51.796;10.952;2022-07-01T04:23:45;11.20;;;10.10;;
10882;SDS011;5494;51.796;10.952;2022-07-01T04:26:13;10.47;;;9.37;;
10882;SDS011;5494;51.796;10.952;2022-07-01T04:29:03;10.60;;;9.50;;
10882;SDS011;5494;51.796;10.952;2022-07-01T04:31:31;10.67;;;9.57;;
10882;SDS011;5494;51.796;10.952;2022-07-01T04:34:01;10.83;;;9.83;;
10882;SDS011;5494;51.796;10.952;2022-07-01T04:36:30;11.17;;;10.07;;
10882;SDS011;5494;51.796;10.952;2022-07-01T04:38:59;13.20;;;9.30;;
10882;SDS011;5494;51.796;10.952;2022-07-01T04:41:28;9.87;;;8.87;;
10882;SDS011;5494;51.796;10.952;2022-07-01T04:44:14;8.87;;;8.07;;
10882;SDS011;5494;51.796;10.952;2022-07-01T04:46:43;8.33;;;7.63;;
10882;SDS011;5494;51.796;10.952;2022-07-01T04:49:13;9.33;;;7.67;;
10882;SDS011;5494;51.796;10.952;2022-07-01T04:51:42;8.30;;;7.47;;
10882;SDS011;5494;51.796;10.952;2022-07-01T04:54:11;7.63;;;6.60;;
10882;SDS011;5494;51.796;10.952;2022-07-01T04:56:39;5.07;;;4.67;;
10882;SDS011;5494;51.796;10.952;2022-07-01T04:59:10;5.10;;;4.60;;
10882;SDS011;5494;51.796;10.952;2022-07-01T05:01:40;4.50;;;4.10;;
10882;SDS011;5494;51.796;10.952;2022-07-01T05:04:08;3.67;;;3.33;;
10882;SDS011;5494;51.796;10.952;2022-07-01T05:06:39;2.60;;;2.40;;
10882;SDS011;5494;51.796;10.952;2022-07-01T05:09:08;2.37;;;2.17;;
10882;SDS011;5494;51.796;10.952;2022-07-01T05:11:37;3.57;;;2.20;;
10882;SDS011;5494;51.796;10.952;2022-07-01T05:14:06;2.20;;;1.70;;
10882;SDS011;5494;51.796;10.952;2022-07-01T05:16:36;1.30;;;1.20;;
10882;SDS011;5494;51.796;10.952;2022-07-01T05:19:05;0.87;;;0.87;;
10882;SDS011;5494;51.796;10.952;2022-07-01T05:21:52;3.03;;;1.03;;
10882;SDS011;5494;51.796;10.952;2022-07-01T05:24:30;2.00;;;0.80;;
10882;SDS011;5494;51.796;10.952;2022-07-01T05:27:00;1.00;;;0.80;;
10882;SDS011;5494;51.796;10.952;2022-07-01T05:29:29;2.90;;;1.50;;
10882;SDS011;5494;51.796;10.952;2022-07-01T05:31:58;0.73;;;0.73;;
10882;SDS011;5494;51.796;10.952;2022-07-01T05:34:26;1.27;;;0.90;;
10882;SDS011;5494;51.796;10.952;2022-07-01T05:36:56;1.13;;;0.93;;
10882;SDS011;5494;51.796;10.952;2022-07-01T05:39:25;0.80;;;0.80;;
10882;SDS011;5494;51.796;10.952;2022-07-01T05:41:53;1.10;;;0.93;;
10882;SDS011;5494;51.796;10.952;2022-07-01T05:44:21;1.87;;;1.17;;
10882;SDS011;5494;51.796;10.952;2022-07-01T05:46:50;1.70;;;1.37;;
10882;SDS011;5494;51.796;10.952;2022-07-01T05:49:19;1.83;;;1.20;;
10882;SDS011;5494;51.796;10.952;2022-07-01T05:51:47;1.23;;;1.13;;
10882;SDS011;5494;51.796;10.952;2022-07-01T05:54:18;1.60;;;1.50;;
10882;SDS011;5494;51.796;10.952;2022-07-01T05:56:46;1.53;;;1.43;;
10882;SDS011;5494;51.796;10.952;2022-07-01T05:59:15;1.30;;;1.20;;
10882;SDS011;5494;51.796;10.952;2022-07-01T06:01:44;1.53;;;1.23;;
10882;SDS011;5494;51.796;10.952;2022-07-01T06:04:13;2.00;;;1.73;;
10882;SDS011;5494;51.796;10.952;2022-07-01T06:06:42;1.93;;;1.50;;
10882;SDS011;5494;51.796;10.952;2022-07-01T06:09:11;1.70;;;1.60;;
10882;SDS011;5494;51.796;10.952;2022-07-01T06:11:40;2.90;;;1.70;;
10882;SDS011;5494;51.796;10.952;2022-07-01T06:14:09;1.90;;;1.47;;
10882;SDS011;5494;51.796;10.952;2022-07-01T06:16:37;1.30;;;1.20;;
10882;SDS011;5494;51.796;10.952;2022-07-01T06:19:06;1.90;;;1.80;;
10882;SDS011;5494;51.796;10.952;2022-07-01T06:21:35;1.90;;;1.60;;
10882;SDS011;5494;51.796;10.952;2022-07-01T06:24:04;1.50;;;1.40;;
10882;SDS011;5494;51.796;10.952;2022-07-01T06:26:33;1.30;;;1.20;;
10882;SDS011;5494;51.796;10.952;2022-07-01T06:29:02;1.80;;;1.20;;
10882;SDS011;5494;51.796;10.952;2022-07-01T06:31:31;2.23;;;1.40;;
10882;SDS011;5494;51.796;10.952;2022-07-01T06:34:00;1.83;;;1.20;;
10882;SDS011;5494;51.796;10.952;2022-07-01T06:36:29;2.87;;;1.50;;
10882;SDS011;5494;51.796;10.952;2022-07-01T06:38:57;1.70;;;1.40;;
10882;SDS011;5494;51.796;10.952;2022-07-01T06:41:26;1.83;;;1.60;;
10882;SDS011;5494;51.796;10.952;2022-07-01T06:43:55;2.23;;;1.50;;
10882;SDS011;5494;51.796;10.952;2022-07-01T06:46:26;1.60;;;1.50;;
10882;SDS011;5494;51.796;10.952;2022-07-01T06:48:56;1.80;;;1.70;;
10882;SDS011;5494;51.796;10.952;2022-07-01T06:51:26;2.40;;;1.80;;
10882;SDS011;5494;51.796;10.952;2022-07-01T06:53:55;3.40;;;1.70;;
10882;SDS011;5494;51.796;10.952;2022-07-01T06:56:23;4.67;;;1.80;;
10882;SDS011;5494;51.796;10.952;2022-07-01T06:58:52;3.70;;;3.37;;
10882;SDS011;5494;51.796;10.952;2022-07-01T07:01:20;1.83;;;1.50;;
10882;SDS011;5494;51.796;10.952;2022-07-01T07:03:51;1.73;;;1.53;;
10882;SDS011;5494;51.796;10.952;2022-07-01T07:06:20;3.57;;;1.70;;
10882;SDS011;5494;51.796;10.952;2022-07-01T07:08:48;2.77;;;1.57;;
10882;SDS011;5494;51.796;10.952;2022-07-01T07:11:17;2.83;;;1.70;;
10882;SDS011;5494;51.796;10.952;2022-07-01T07:13:46;3.50;;;1.60;;
10882;SDS011;5494;51.796;10.952;2022-07-01T07:16:15;2.07;;;1.73;;
10882;SDS011;5494;51.796;10.952;2022-07-01T07:18:48;3.90;;;1.80;;
10882;SDS011;5494;51.796;10.952;2022-07-01T07:21:18;1.83;;;1.70;;
10882;SDS011;5494;51.796;10.952;2022-07-01T07:23:47;2.13;;;1.70;;
10882;SDS011;5494;51.796;10.952;2022-07-01T07:26:16;4.57;;;3.07;;
10882;SDS011;5494;51.796;10.952;2022-07-01T07:28:44;3.27;;;2.57;;
10882;SDS011;5494;51.796;10.952;2022-07-01T07:31:19;4.17;;;2.60;;
10882;SDS011;5494;51.796;10.952;2022-07-01T07:33:47;2.93;;;2.70;;
10882;SDS011;5494;51.796;10.952;2022-07-01T07:36:17;5.47;;;2.43;;
10882;SDS011;5494;51.796;10.952;2022-07-01T07:38:46;2.43;;;2.23;;
10882;SDS011;5494;51.796;10.952;2022-07-01T07:41:15;1.77;;;1.67;;
10882;SDS011;5494;51.796;10.952;2022-07-01T07:43:43;2.43;;;2.00;;
10882;SDS011;5494;51.796;10.952;2022-07-01T07:46:12;1.97;;;1.87;;
10882;SDS011;5494;51.796;10.952;2022-07-01T07:48:41;2.47;;;2.00;;
10882;SDS011;5494;51.796;10.952;2022-07-01T07:51:10;2.60;;;1.70;;
10882;SDS011;5494;51.796;10.952;2022-07-01T07:53:52;2.07;;;1.87;;
10882;SDS011;5494;51.796;10.952;2022-07-01T07:56:21;2.53;;;1.90;;
10882;SDS011;5494;51.796;10.952;2022-07-01T07:58:49;2.53;;;2.10;;
10882;SDS011;5494;51.796;10.952;2022-07-01T08:01:17;1.70;;;1.60;;
10882;SDS011;5494;51.796;10.952;2022-07-01T08:03:46;1.90;;;1.43;;
10882;SDS011;5494;51.796;10.952;2022-07-01T08:06:16;1.60;;;1.50;;
10882;SDS011;5494;51.796;10.952;2022-07-01T08:08:45;1.50;;;1.27;;
10882;SDS011;5494;51.796;10.952;2022-07-01T08:11:15;1.93;;;1.50;;
10882;SDS011;5494;51.796;10.952;2022-07-01T08:13:43;1.53;;;1.43;;
10882;SDS011;5494;51.796;10.952;2022-07-01T08:16:11;2.10;;;1.50;;
10882;SDS011;5494;51.796;10.952;2022-07-01T08:18:40;2.17;;;1.30;;
10882;SDS011;5494;51.796;10.952;2022-07-01T08:21:09;2.07;;;1.60;;
10882;SDS011;5494;51.796;10.952;2022-07-01T08:23:37;2.20;;;1.13;;
10882;SDS011;5494;51.796;10.952;2022-07-01T08:26:06;2.37;;;1.27;;
10882;SDS011;5494;51.796;10.952;2022-07-01T08:28:39;2.60;;;1.87;;
10882;SDS011;5494;51.796;10.952;2022-07-01T08:31:08;1.40;;;1.30;;
10882;SDS011;5494;51.796;10.952;2022-07-01T08:33:36;1.50;;;1.30;;
10882;SDS011;5494;51.796;10.952;2022-07-01T08:36:06;1.50;;;1.40;;
10882;SDS011;5494;51.796;10.952;2022-07-01T08:38:36;2.53;;;1.30;;
10882;SDS011;5494;51.796;10.952;2022-07-01T08:41:07;1.70;;;1.60;;
10882;SDS011;5494;51.796;10.952;2022-07-01T08:43:36;1.53;;;1.10;;
10882;SDS011;5494;51.796;10.952;2022-07-01T08:46:07;1.57;;;1.00;;
10882;SDS011;5494;51.796;10.952;2022-07-01T08:48:36;2.00;;;1.30;;
10882;SDS011;5494;51.796;10.952;2022-07-01T08:51:09;1.30;;;1.20;;
10882;SDS011;5494;51.796;10.952;2022-07-01T08:53:38;1.90;;;1.30;;
10882;SDS011;5494;51.796;10.952;2022-07-01T08:56:07;3.23;;;2.33;;
10882;SDS011;5494;51.796;10.952;2022-07-01T08:58:53;3.77;;;3.40;;
10882;SDS011;5494;51.796;10.952;2022-07-01T09:01:24;2.40;;;1.97;;
10882;SDS011;5494;51.796;10.952;2022-07-01T09:03:54;3.00;;;2.30;;
10882;SDS011;5494;51.796;10.952;2022-07-01T09:06:39;3.43;;;2.87;;
10882;SDS011;5494;51.796;10.952;2022-07-01T09:09:12;3.20;;;2.40;;
10882;SDS011;5494;51.796;10.952;2022-07-01T09:11:44;3.00;;;2.70;;
10882;SDS011;5494;51.796;10.952;2022-07-01T09:14:20;3.60;;;2.67;;
10882;SDS011;5494;51.796;10.952;2022-07-01T09:16:52;3.07;;;2.70;;
10882;SDS011;5494;51.796;10.952;2022-07-01T09:19:25;4.27;;;3.80;;
10882;SDS011;5494;51.796;10.952;2022-07-01T09:21:57;2.90;;;2.70;;
10882;SDS011;5494;51.796;10.952;2022-07-01T09:24:29;2.90;;;2.70;;
10882;SDS011;5494;51.796;10.952;2022-07-01T09:27:00;2.73;;;2.53;;
10882;SDS011;5494;51.796;10.952;2022-07-01T09:29:34;4.10;;;2.67;;
10882;SDS011;5494;51.796;10.952;2022-07-01T09:32:07;3.37;;;3.03;;
10882;SDS011;5494;51.796;10.952;2022-07-01T09:34:39;3.20;;;2.90;;
10882;SDS011;5494;51.796;10.952;2022-07-01T09:37:10;4.00;;;3.40;;
10882;SDS011;5494;51.796;10.952;2022-07-01T09:39:41;3.00;;;2.80;;
10882;SDS011;5494;51.796;10.952;2022-07-01T09:42:12;3.13;;;2.57;;
10882;SDS011;5494;51.796;10.952;2022-07-01T09:44:53;3.00;;;2.80;;
10882;SDS011;5494;51.796;10.952;2022-07-01T09:47:30;3.30;;;2.23;;
10882;SDS011;5494;51.796;10.952;2022-07-01T09:50:01;2.03;;;1.90;;
10882;SDS011;5494;51.796;10.952;2022-07-01T09:52:32;2.20;;;2.00;;
10882;SDS011;5494;51.796;10.952;2022-07-01T09:55:03;3.37;;;1.70;;
10882;SDS011;5494;51.796;10.952;2022-07-01T09:57:34;1.93;;;1.57;;
10882;SDS011;5494;51.796;10.952;2022-07-01T10:00:03;1.97;;;1.20;;
10882;SDS011;5494;51.796;10.952;2022-07-01T10:02:36;1.60;;;1.50;;
10882;SDS011;5494;51.796;10.952;2022-07-01T10:05:07;2.77;;;1.50;;
10882;SDS011;5494;51.796;10.952;2022-07-01T10:07:45;1.87;;;1.50;;
10882;SDS011;5494;51.796;10.952;2022-07-01T10:10:35;1.50;;;1.40;;
10882;SDS011;5494;51.796;10.952;2022-07-01T10:13:17;1.60;;;1.50;;
10882;SDS011;5494;51.796;10.952;2022-07-01T10:15:50;1.83;;;1.73;;
10882;SDS011;5494;51.796;10.952;2022-07-01T10:18:22;1.70;;;1.50;;
10882;SDS011;5494;51.796;10.952;2022-07-01T10:20:53;2.60;;;1.67;;
10882;SDS011;5494;51.796;10.952;2022-07-01T10:23:27;2.60;;;1.87;;
10882;SDS011;5494;51.796;10.952;2022-07-01T10:26:06;1.97;;;1.77;;
10882;SDS011;5494;51.796;10.952;2022-07-01T10:28:41;1.80;;;1.63;;
10882;SDS011;5494;51.796;10.952;2022-07-01T10:31:12;2.30;;;1.93;;
10882;SDS011;5494;51.796;10.952;2022-07-01T10:33:48;2.20;;;2.00;;
10882;SDS011;5494;51.796;10.952;2022-07-01T10:36:23;2.53;;;2.33;;
10882;SDS011;5494;51.796;10.952;2022-07-01T10:39:15;2.27;;;2.07;;
10882;SDS011;5494;51.796;10.952;2022-07-01T10:41:55;4.17;;;2.50;;
10882;SDS011;5494;51.796;10.952;2022-07-01T10:47:32;3.40;;;2.67;;
10882;SDS011;5494;51.796;10.952;2022-07-01T10:50:07;3.23;;;2.57;;
10882;SDS011;5494;51.796;10.952;2022-07-01T10:52:44;4.03;;;2.80;;
10882;SDS011;5494;51.796;10.952;2022-07-01T10:55:37;3.00;;;2.67;;
10882;SDS011;5494;51.796;10.952;2022-07-01T10:58:06;3.20;;;2.90;;
10882;SDS011;5494;51.796;10.952;2022-07-01T11:00:35;5.27;;;2.93;;
10882;SDS011;5494;51.796;10.952;2022-07-01T11:03:19;3.20;;;3.00;;
10882;SDS011;5494;51.796;10.952;2022-07-01T11:05:53;3.63;;;3.33;;
10882;SDS011;5494;51.796;10.952;2022-07-01T11:08:23;3.90;;;3.50;;
10882;SDS011;5494;51.796;10.952;2022-07-01T11:10:57;3.73;;;3.43;;
10882;SDS011;5494;51.796;10.952;2022-07-01T11:13:31;3.90;;;3.60;;
10882;SDS011;5494;51.796;10.952;2022-07-01T11:16:02;3.87;;;3.57;;
10882;SDS011;5494;51.796;10.952;2022-07-01T11:18:32;3.30;;;3.00;;
10882;SDS011;5494;51.796;10.952;2022-07-01T11:21:06;3.60;;;3.30;;
10882;SDS011;5494;51.796;10.952;2022-07-01T11:23:37;3.37;;;3.07;;
10882;SDS011;5494;51.796;10.952;2022-07-01T11:26:21;3.37;;;3.03;;
10882;SDS011;5494;51.796;10.952;2022-07-01T11:28:50;3.30;;;2.97;;
10882;SDS011;5494;51.796;10.952;2022-07-01T11:31:32;3.33;;;3.03;;
10882;SDS011;5494;51.796;10.952;2022-07-01T11:34:01;3.43;;;3.13;;
10882;SDS011;5494;51.796;10.952;2022-07-01T11:36:32;3.30;;;3.00;;
10882;SDS011;5494;51.796;10.952;2022-07-01T11:39:19;3.17;;;2.87;;
10882;SDS011;5494;51.796;10.952;2022-07-01T11:41:52;2.80;;;2.60;;
10882;SDS011;5494;51.796;10.952;2022-07-01T11:44:32;4.23;;;2.90;;
10882;SDS011;5494;51.796;10.952;2022-07-01T11:47:03;3.50;;;2.70;;
10882;SDS011;5494;51.796;10.952;2022-07-01T11:49:34;2.80;;;2.60;;
10882;SDS011;5494;51.796;10.952;2022-07-01T11:52:14;2.80;;;2.60;;
10882;SDS011;5494;51.796;10.952;2022-07-01T11:54:47;3.20;;;3.00;;
10882;SDS011;5494;51.796;10.952;2022-07-01T11:57:18;3.50;;;3.20;;
10882;SDS011;5494;51.796;10.952;2022-07-01T11:59:52;3.50;;;3.20;;
10882;SDS011;5494;51.796;10.952;2022-07-01T12:02:23;5.43;;;3.60;;
10882;SDS011;5494;51.796;10.952;2022-07-01T12:04:52;4.40;;;4.00;;
10882;SDS011;5494;51.796;10.952;2022-07-01T12:07:22;4.80;;;4.40;;
10882;SDS011;5494;51.796;10.952;2022-07-01T12:09:52;5.20;;;4.40;;
10882;SDS011;5494;51.796;10.952;2022-07-01T12:12:22;4.97;;;4.57;;
10882;SDS011;5494;51.796;10.952;2022-07-01T12:14:53;4.60;;;4.20;;
10882;SDS011;5494;51.796;10.952;2022-07-01T12:17:24;4.23;;;3.83;;
10882;SDS011;5494;51.796;10.952;2022-07-01T12:19:54;4.80;;;4.40;;
10882;SDS011;5494;51.796;10.952;2022-07-01T12:22:25;5.57;;;4.30;;
10882;SDS011;5494;51.796;10.952;2022-07-01T12:25:04;5.97;;;4.63;;
10882;SDS011;5494;51.796;10.952;2022-07-01T12:27:35;5.70;;;5.20;;
10882;SDS011;5494;51.796;10.952;2022-07-01T12:30:09;6.47;;;5.77;;
10882;SDS011;5494;51.796;10.952;2022-07-01T12:32:50;6.10;;;5.43;;
10882;SDS011;5494;51.796;10.952;2022-07-01T12:35:22;8.30;;;7.43;;
10882;SDS011;5494;51.796;10.952;2022-07-01T12:38:06;6.60;;;6.00;;
10882;SDS011;5494;51.796;10.952;2022-07-01T12:40:36;6.80;;;6.03;;
10882;SDS011;5494;51.796;10.952;2022-07-01T12:43:04;8.63;;;7.83;;
10882;SDS011;5494;51.796;10.952;2022-07-01T12:45:38;10.27;;;9.13;;
10882;SDS011;5494;51.796;10.952;2022-07-01T12:48:08;9.73;;;8.83;;
10882;SDS011;5494;51.796;10.952;2022-07-01T12:50:37;9.47;;;8.57;;
10882;SDS011;5494;51.796;10.952;2022-07-01T12:53:08;10.83;;;9.77;;
10882;SDS011;5494;51.796;10.952;2022-07-01T12:55:38;9.70;;;8.80;;
10882;SDS011;5494;51.796;10.952;2022-07-01T12:58:09;11.07;;;9.33;;
10882;SDS011;5494;51.796;10.952;2022-07-01T13:00:40;11.47;;;9.57;;
10882;SDS011;5494;51.796;10.952;2022-07-01T13:03:11;10.03;;;8.50;;
10882;SDS011;5494;51.796;10.952;2022-07-01T13:05:40;10.90;;;9.60;;
10882;SDS011;5494;51.796;10.952;2022-07-01T13:08:10;11.13;;;9.97;;
10882;SDS011;5494;51.796;10.952;2022-07-01T13:10:39;10.50;;;9.50;;
10882;SDS011;5494;51.796;10.952;2022-07-01T13:13:07;11.00;;;9.90;;
10882;SDS011;5494;51.796;10.952;2022-07-01T13:15:37;11.67;;;10.57;;
10882;SDS011;5494;51.796;10.952;2022-07-01T13:18:05;10.73;;;9.67;;
10882;SDS011;5494;51.796;10.952;2022-07-01T13:20:35;11.80;;;10.60;;
10882;SDS011;5494;51.796;10.952;2022-07-01T13:23:07;10.87;;;9.77;;
10882;SDS011;5494;51.796;10.952;2022-07-01T13:25:37;10.97;;;9.97;;
10882;SDS011;5494;51.796;10.952;2022-07-01T13:28:06;11.10;;;9.93;;
10882;SDS011;5494;51.796;10.952;2022-07-01T13:30:35;11.50;;;10.30;;
10882;SDS011;5494;51.796;10.952;2022-07-01T13:33:05;10.47;;;9.40;;
10882;SDS011;5494;51.796;10.952;2022-07-01T13:35:33;10.97;;;9.90;;
10882;SDS011;5494;51.796;10.952;2022-07-01T13:38:02;10.60;;;9.50;;
10882;SDS011;5494;51.796;10.952;2022-07-01T13:40:31;10.93;;;9.90;;
10882;SDS011;5494;51.796;10.952;2022-07-01T13:43:01;11.73;;;10.57;;
10882;SDS011;5494;51.796;10.952;2022-07-01T13:45:30;10.77;;;9.73;;
10882;SDS011;5494;51.796;10.952;2022-07-01T13:47:58;11.27;;;10.20;;
10882;SDS011;5494;51.796;10.952;2022-07-01T13:50:27;10.70;;;9.70;;
10882;SDS011;5494;51.796;10.952;2022-07-01T13:52:56;10.77;;;9.53;;
10882;SDS011;5494;51.796;10.952;2022-07-01T13:55:25;11.33;;;10.27;;
10882;SDS011;5494;51.796;10.952;2022-07-01T13:57:54;10.23;;;9.23;;
10882;SDS011;5494;51.796;10.952;2022-07-01T14:00:24;10.27;;;9.27;;
10882;SDS011;5494;51.796;10.952;2022-07-01T14:02:55;10.67;;;9.57;;
10882;SDS011;5494;51.796;10.952;2022-07-01T14:05:23;10.00;;;9.10;;
10882;SDS011;5494;51.796;10.952;2022-07-01T14:07:52;10.27;;;9.43;;
10882;SDS011;5494;51.796;10.952;2022-07-01T14:10:21;11.03;;;10.03;;
10882;SDS011;5494;51.796;10.952;2022-07-01T14:12:49;9.03;;;8.23;;
10882;SDS011;5494;51.796;10.952;2022-07-01T14:15:17;8.30;;;7.50;;
10882;SDS011;5494;51.796;10.952;2022-07-01T14:17:47;9.17;;;8.37;;
10882;SDS011;5494;51.796;10.952;2022-07-01T14:20:16;8.10;;;7.47;;
10882;SDS011;5494;51.796;10.952;2022-07-01T14:22:45;8.57;;;7.80;;
10882;SDS011;5494;51.796;10.952;2022-07-01T14:25:13;8.20;;;7.50;;
10882;SDS011;5494;51.796;10.952;2022-07-01T14:27:42;8.63;;;7.73;;
10882;SDS011;5494;51.796;10.952;2022-07-01T14:30:12;8.27;;;7.57;;
10882;SDS011;5494;51.796;10.952;2022-07-01T14:32:41;5.53;;;5.13;;
10882;SDS011;5494;51.796;10.952;2022-07-01T14:35:12;5.50;;;5.00;;
10882;SDS011;5494;51.796;10.952;2022-07-01T14:37:41;5.60;;;5.10;;
10882;SDS011;5494;51.796;10.952;2022-07-01T14:40:10;5.17;;;4.67;;
10882;SDS011;5494;51.796;10.952;2022-07-01T14:42:40;4.97;;;4.57;;
10882;SDS011;5494;51.796;10.952;2022-07-01T14:45:08;5.43;;;4.73;;
10882;SDS011;5494;51.796;10.952;2022-07-01T14:47:40;5.97;;;5.47;;
10882;SDS011;5494;51.796;10.952;2022-07-01T14:50:09;5.67;;;5.17;;
10882;SDS011;5494;51.796;10.952;2022-07-01T14:52:40;6.07;;;5.57;;
10882;SDS011;5494;51.796;10.952;2022-07-01T14:55:09;6.03;;;5.00;;
10882;SDS011;5494;51.796;10.952;2022-07-01T14:57:37;5.57;;;5.00;;
10882;SDS011;5494;51.796;10.952;2022-07-01T15:00:07;5.70;;;5.20;;
10882;SDS011;5494;51.796;10.952;2022-07-01T15:02:38;5.20;;;4.73;;
10882;SDS011;5494;51.796;10.952;2022-07-01T15:05:07;4.83;;;4.43;;